sensor_id;sensor_type;location;lat;lon;timestamp;P1;durP1;ratioP1;P2;durP2;ratioP2
21675;SDS011;10999;51.332;9.458;2022-11-04T00:02:22;10.98;;;3.85;;
21675;SDS011;10999;51.332;9.458;2022-11-04T00:04:49;10.07;;;4.00;;
21675;SDS011;10999;51.332;9.458;2022-11-04T00:07:15;8.02;;;3.30;;
21675;SDS011;10999;51.332;9.458;2022-11-04T00:10:00;8.75;;;3.08;;
21675;SDS011;10999;51.332;9.458;2022-11-04T00:12:27;9.23;;;3.35;;
21675;SDS011;10999;51.332;9.458;2022-11-04T00:14:54;8.57;;;3.25;;
21675;SDS011;10999;51.332;9.458;2022-11-04T00:17:40;8.23;;;2.90;;
21675;SDS011;10999;51.332;9.458;2022-11-04T00:20:07;9.65;;;3.50;;
21675;SDS011;10999;51.332;9.458;2022-11-04T00:22:52;7.45;;;3.17;;
21675;SDS011;10999;51.332;9.458;2022-11-04T00:25:37;8.05;;;3.28;;
21675;SDS011;10999;51.332;9.458;2022-11-04T00:28:23;8.45;;;3.15;;
21675;SDS011;10999;51.332;9.458;2022-11-04T00:31:08;8.73;;;3.95;;
21675;SDS011;10999;51.332;9.458;2022-11-04T00:33:56;8.05;;;3.00;;
21675;SDS011;10999;51.332;9.458;2022-11-04T00:36:24;10.13;;;3.53;;
21675;SDS011;10999;51.332;9.458;2022-11-04T00:38:51;7.53;;;2.92;;
21675;SDS011;10999;51.332;9.458;2022-11-04T00:41:18;9.60;;;4.45;;
21675;SDS011;10999;51.332;9.458;2022-11-04T00:43:53;6.85;;;2.78;;
21675;SDS011;10999;51.332;9.458;2022-11-04T00:46:21;9.68;;;3.08;;
21675;SDS011;10999;51.332;9.458;2022-11-04T00:48:47;7.53;;;2.92;;
21675;SDS011;10999;51.332;9.458;2022-11-04T00:51:14;8.70;;;3.45;;
21675;SDS011;10999;51.332;9.458;2022-11-04T00:53:41;7.88;;;3.22;;
21675;SDS011;10999;51.332;9.458;2022-11-04T00:56:08;8.23;;;2.95;;
21675;SDS011;10999;51.332;9.458;2022-11-04T00:58:35;8.90;;;2.90;;
21675;SDS011;10999;51.332;9.458;2022-11-04T01:01:08;6.65;;;2.88;;
21675;SDS011;10999;51.332;9.458;2022-11-04T01:03:36;6.93;;;2.88;;
21675;SDS011;10999;51.332;9.458;2022-11-04T01:06:03;8.18;;;3.33;;
21675;SDS011;10999;51.332;9.458;2022-11-04T01:08:30;7.40;;;2.90;;
21675;SDS011;10999;51.332;9.458;2022-11-04T01:11:01;9.43;;;3.05;;
21675;SDS011;10999;51.332;9.458;2022-11-04T01:13:28;7.25;;;2.90;;
21675;SDS011;10999;51.332;9.458;2022-11-04T01:15:59;6.72;;;2.45;;
21675;SDS011;10999;51.332;9.458;2022-11-04T01:18:27;7.18;;;2.50;;
21675;SDS011;10999;51.332;9.458;2022-11-04T01:20:54;6.97;;;2.60;;
21675;SDS011;10999;51.332;9.458;2022-11-04T01:23:25;6.72;;;2.35;;
21675;SDS011;10999;51.332;9.458;2022-11-04T01:25:52;6.43;;;2.38;;
21675;SDS011;10999;51.332;9.458;2022-11-04T01:28:19;5.93;;;2.30;;
21675;SDS011;10999;51.332;9.458;2022-11-04T01:30:45;5.38;;;2.28;;
21675;SDS011;10999;51.332;9.458;2022-11-04T01:33:12;6.85;;;2.30;;
21675;SDS011;10999;51.332;9.458;2022-11-04T01:35:39;6.38;;;2.40;;
21675;SDS011;10999;51.332;9.458;2022-11-04T01:38:05;6.97;;;2.65;;
21675;SDS011;10999;51.332;9.458;2022-11-04T01:40:39;6.78;;;2.63;;
21675;SDS011;10999;51.332;9.458;2022-11-04T01:43:13;5.22;;;1.95;;
21675;SDS011;10999;51.332;9.458;2022-11-04T01:45:49;6.50;;;2.08;;
21675;SDS011;10999;51.332;9.458;2022-11-04T01:48:23;7.00;;;2.50;;
21675;SDS011;10999;51.332;9.458;2022-11-04T01:50:53;5.95;;;2.03;;
21675;SDS011;10999;51.332;9.458;2022-11-04T01:53:22;5.53;;;2.28;;
21675;SDS011;10999;51.332;9.458;2022-11-04T01:55:54;7.07;;;2.35;;
21675;SDS011;10999;51.332;9.458;2022-11-04T01:58:27;5.65;;;2.20;;
21675;SDS011;10999;51.332;9.458;2022-11-04T02:00:56;6.00;;;1.60;;
21675;SDS011;10999;51.332;9.458;2022-11-04T02:06:01;5.22;;;2.38;;
21675;SDS011;10999;51.332;9.458;2022-11-04T02:08:29;5.65;;;2.10;;
21675;SDS011;10999;51.332;9.458;2022-11-04T02:11:00;5.40;;;1.70;;
21675;SDS011;10999;51.332;9.458;2022-11-04T02:13:29;5.32;;;1.60;;
21675;SDS011;10999;51.332;9.458;2022-11-04T02:16:12;3.80;;;1.40;;
21675;SDS011;10999;51.332;9.458;2022-11-04T02:22:00;4.45;;;0.98;;
21675;SDS011;10999;51.332;9.458;2022-11-04T02:27:15;2.95;;;1.05;;
21675;SDS011;10999;51.332;9.458;2022-11-04T02:30:03;1.30;;;0.50;;
21675;SDS011;10999;51.332;9.458;2022-11-04T02:35:38;1.02;;;0.60;;
21675;SDS011;10999;51.332;9.458;2022-11-04T02:41:23;1.25;;;0.40;;
21675;SDS011;10999;51.332;9.458;2022-11-04T02:44:19;3.50;;;0.95;;
21675;SDS011;10999;51.332;9.458;2022-11-04T02:47:09;1.27;;;0.38;;
21675;SDS011;10999;51.332;9.458;2022-11-04T02:49:45;2.15;;;0.50;;
21675;SDS011;10999;51.332;9.458;2022-11-04T02:52:21;1.27;;;0.40;;
21675;SDS011;10999;51.332;9.458;2022-11-04T02:55:17;1.48;;;0.52;;
21675;SDS011;10999;51.332;9.458;2022-11-04T02:57:48;1.00;;;0.40;;
21675;SDS011;10999;51.332;9.458;2022-11-04T03:00:17;0.73;;;0.30;;
21675;SDS011;10999;51.332;9.458;2022-11-04T03:02:53;0.82;;;0.35;;
21675;SDS011;10999;51.332;9.458;2022-11-04T03:05:25;1.25;;;0.40;;
21675;SDS011;10999;51.332;9.458;2022-11-04T03:07:57;1.73;;;0.43;;
21675;SDS011;10999;51.332;9.458;2022-11-04T03:10:35;1.75;;;0.40;;
21675;SDS011;10999;51.332;9.458;2022-11-04T03:13:15;0.47;;;0.30;;
21675;SDS011;10999;51.332;9.458;2022-11-04T03:15:50;0.90;;;0.40;;
21675;SDS011;10999;51.332;9.458;2022-11-04T03:18:36;0.43;;;0.20;;
21675;SDS011;10999;51.332;9.458;2022-11-04T03:21:23;1.15;;;0.30;;
21675;SDS011;10999;51.332;9.458;2022-11-04T03:23:52;1.80;;;0.32;;
21675;SDS011;10999;51.332;9.458;2022-11-04T03:26:35;1.20;;;0.40;;
21675;SDS011;10999;51.332;9.458;2022-11-04T03:29:56;1.38;;;0.30;;
21675;SDS011;10999;51.332;9.458;2022-11-04T03:32:04;0.55;;;0.20;;
21675;SDS011;10999;51.332;9.458;2022-11-04T03:34:37;1.33;;;0.50;;
21675;SDS011;10999;51.332;9.458;2022-11-04T03:37:04;1.80;;;0.70;;
21675;SDS011;10999;51.332;9.458;2022-11-04T03:39:31;1.35;;;0.40;;
21675;SDS011;10999;51.332;9.458;2022-11-04T03:41:59;1.15;;;0.35;;
21675;SDS011;10999;51.332;9.458;2022-11-04T03:44:51;0.45;;;0.30;;
21675;SDS011;10999;51.332;9.458;2022-11-04T03:47:21;0.35;;;0.30;;
21675;SDS011;10999;51.332;9.458;2022-11-04T03:49:51;0.88;;;0.38;;
21675;SDS011;10999;51.332;9.458;2022-11-04T03:52:22;1.75;;;0.50;;
21675;SDS011;10999;51.332;9.458;2022-11-04T03:54:49;0.73;;;0.40;;
21675;SDS011;10999;51.332;9.458;2022-11-04T03:57:19;1.08;;;0.32;;
21675;SDS011;10999;51.332;9.458;2022-11-04T04:00:10;1.20;;;0.52;;
21675;SDS011;10999;51.332;9.458;2022-11-04T04:02:45;0.80;;;0.60;;
21675;SDS011;10999;51.332;9.458;2022-11-04T04:05:22;1.45;;;0.50;;
21675;SDS011;10999;51.332;9.458;2022-11-04T04:16:31;1.50;;;0.50;;
21675;SDS011;10999;51.332;9.458;2022-11-04T04:19:14;2.20;;;0.95;;
21675;SDS011;10999;51.332;9.458;2022-11-04T04:21:47;1.67;;;0.70;;
21675;SDS011;10999;51.332;9.458;2022-11-04T04:24:19;2.35;;;0.70;;
21675;SDS011;10999;51.332;9.458;2022-11-04T04:27:10;2.00;;;0.70;;
21675;SDS011;10999;51.332;9.458;2022-11-04T04:29:56;1.05;;;0.50;;
21675;SDS011;10999;51.332;9.458;2022-11-04T04:32:36;3.15;;;0.60;;
21675;SDS011;10999;51.332;9.458;2022-11-04T04:35:06;2.10;;;0.70;;
21675;SDS011;10999;51.332;9.458;2022-11-04T04:37:53;2.05;;;0.73;;
21675;SDS011;10999;51.332;9.458;2022-11-04T04:40:44;2.17;;;0.60;;
21675;SDS011;10999;51.332;9.458;2022-11-04T04:43:35;1.60;;;0.52;;
21675;SDS011;10999;51.332;9.458;2022-11-04T04:46:22;2.13;;;0.80;;
21675;SDS011;10999;51.332;9.458;2022-11-04T04:48:49;2.45;;;0.95;;
21675;SDS011;10999;51.332;9.458;2022-11-04T04:51:16;1.85;;;0.88;;
21675;SDS011;10999;51.332;9.458;2022-11-04T04:53:43;2.28;;;0.90;;
21675;SDS011;10999;51.332;9.458;2022-11-04T04:56:10;3.47;;;1.00;;
21675;SDS011;10999;51.332;9.458;2022-11-04T04:58:36;2.35;;;0.90;;
21675;SDS011;10999;51.332;9.458;2022-11-04T05:01:03;3.25;;;1.20;;
21675;SDS011;10999;51.332;9.458;2022-11-04T05:03:30;3.15;;;1.00;;
21675;SDS011;10999;51.332;9.458;2022-11-04T05:05:58;2.92;;;1.02;;
21675;SDS011;10999;51.332;9.458;2022-11-04T05:08:24;2.10;;;0.90;;
21675;SDS011;10999;51.332;9.458;2022-11-04T05:10:51;3.90;;;1.45;;
21675;SDS011;10999;51.332;9.458;2022-11-04T05:13:18;2.28;;;1.05;;
21675;SDS011;10999;51.332;9.458;2022-11-04T05:15:55;3.40;;;1.17;;
21675;SDS011;10999;51.332;9.458;2022-11-04T05:18:22;4.63;;;1.23;;
21675;SDS011;10999;51.332;9.458;2022-11-04T05:20:49;3.72;;;1.23;;
21675;SDS011;10999;51.332;9.458;2022-11-04T05:23:16;3.72;;;1.20;;
21675;SDS011;10999;51.332;9.458;2022-11-04T05:25:42;3.72;;;1.38;;
21675;SDS011;10999;51.332;9.458;2022-11-04T05:28:09;3.67;;;1.30;;
21675;SDS011;10999;51.332;9.458;2022-11-04T05:30:36;3.42;;;1.10;;
21675;SDS011;10999;51.332;9.458;2022-11-04T05:33:03;3.28;;;1.40;;
21675;SDS011;10999;51.332;9.458;2022-11-04T05:35:31;3.63;;;1.35;;
21675;SDS011;10999;51.332;9.458;2022-11-04T05:37:58;4.63;;;1.50;;
21675;SDS011;10999;51.332;9.458;2022-11-04T05:40:24;4.78;;;1.30;;
21675;SDS011;10999;51.332;9.458;2022-11-04T05:42:51;2.90;;;1.40;;
21675;SDS011;10999;51.332;9.458;2022-11-04T05:45:18;2.85;;;1.10;;
21675;SDS011;10999;51.332;9.458;2022-11-04T05:47:45;3.92;;;1.05;;
21675;SDS011;10999;51.332;9.458;2022-11-04T05:50:11;4.53;;;1.20;;
21675;SDS011;10999;51.332;9.458;2022-11-04T05:52:38;5.00;;;1.45;;
21675;SDS011;10999;51.332;9.458;2022-11-04T05:55:05;2.92;;;1.35;;
21675;SDS011;10999;51.332;9.458;2022-11-04T05:57:32;4.05;;;1.33;;
21675;SDS011;10999;51.332;9.458;2022-11-04T06:00:00;3.17;;;1.30;;
21675;SDS011;10999;51.332;9.458;2022-11-04T06:02:27;2.72;;;1.23;;
21675;SDS011;10999;51.332;9.458;2022-11-04T06:04:54;4.45;;;1.95;;
21675;SDS011;10999;51.332;9.458;2022-11-04T06:07:21;2.33;;;1.00;;
21675;SDS011;10999;51.332;9.458;2022-11-04T06:09:49;3.45;;;1.52;;
21675;SDS011;10999;51.332;9.458;2022-11-04T06:12:15;4.07;;;1.60;;
21675;SDS011;10999;51.332;9.458;2022-11-04T06:14:42;3.67;;;1.52;;
21675;SDS011;10999;51.332;9.458;2022-11-04T06:17:16;4.53;;;1.83;;
21675;SDS011;10999;51.332;9.458;2022-11-04T06:19:44;4.22;;;1.50;;
21675;SDS011;10999;51.332;9.458;2022-11-04T06:22:12;4.38;;;1.40;;
21675;SDS011;10999;51.332;9.458;2022-11-04T06:24:43;5.25;;;1.85;;
21675;SDS011;10999;51.332;9.458;2022-11-04T06:27:10;4.65;;;1.30;;
21675;SDS011;10999;51.332;9.458;2022-11-04T06:29:37;2.67;;;1.17;;
21675;SDS011;10999;51.332;9.458;2022-11-04T06:32:11;4.10;;;1.17;;
21675;SDS011;10999;51.332;9.458;2022-11-04T06:34:40;4.57;;;1.40;;
21675;SDS011;10999;51.332;9.458;2022-11-04T06:37:06;5.28;;;1.55;;
21675;SDS011;10999;51.332;9.458;2022-11-04T06:39:34;3.38;;;1.50;;
21675;SDS011;10999;51.332;9.458;2022-11-04T06:42:10;4.60;;;1.40;;
21675;SDS011;10999;51.332;9.458;2022-11-04T06:44:37;2.55;;;1.00;;
21675;SDS011;10999;51.332;9.458;2022-11-04T06:47:03;2.78;;;1.10;;
21675;SDS011;10999;51.332;9.458;2022-11-04T06:49:30;2.95;;;1.10;;
21675;SDS011;10999;51.332;9.458;2022-11-04T06:51:56;6.53;;;2.00;;
21675;SDS011;10999;51.332;9.458;2022-11-04T06:54:23;4.22;;;1.30;;
21675;SDS011;10999;51.332;9.458;2022-11-04T06:56:50;3.28;;;1.30;;
21675;SDS011;10999;51.332;9.458;2022-11-04T06:59:17;2.70;;;1.10;;
21675;SDS011;10999;51.332;9.458;2022-11-04T07:01:45;2.88;;;1.30;;
21675;SDS011;10999;51.332;9.458;2022-11-04T07:04:14;3.63;;;1.25;;
21675;SDS011;10999;51.332;9.458;2022-11-04T07:06:41;4.00;;;1.50;;
21675;SDS011;10999;51.332;9.458;2022-11-04T07:09:11;4.93;;;1.75;;
21675;SDS011;10999;51.332;9.458;2022-11-04T07:11:38;4.43;;;1.67;;
21675;SDS011;10999;51.332;9.458;2022-11-04T07:14:06;4.53;;;1.50;;
21675;SDS011;10999;51.332;9.458;2022-11-04T07:16:34;2.65;;;1.15;;
21675;SDS011;10999;51.332;9.458;2022-11-04T07:19:00;4.65;;;1.60;;
21675;SDS011;10999;51.332;9.458;2022-11-04T07:21:28;3.10;;;1.45;;
21675;SDS011;10999;51.332;9.458;2022-11-04T07:23:54;5.07;;;1.38;;
21675;SDS011;10999;51.332;9.458;2022-11-04T07:26:21;3.22;;;1.30;;
21675;SDS011;10999;51.332;9.458;2022-11-04T07:28:48;4.10;;;1.42;;
21675;SDS011;10999;51.332;9.458;2022-11-04T07:31:14;3.20;;;1.20;;
21675;SDS011;10999;51.332;9.458;2022-11-04T07:33:43;5.65;;;1.63;;
21675;SDS011;10999;51.332;9.458;2022-11-04T07:36:14;2.85;;;1.20;;
21675;SDS011;10999;51.332;9.458;2022-11-04T07:38:42;3.33;;;1.35;;
21675;SDS011;10999;51.332;9.458;2022-11-04T07:41:08;3.05;;;1.20;;
21675;SDS011;10999;51.332;9.458;2022-11-04T07:43:35;4.93;;;1.30;;
21675;SDS011;10999;51.332;9.458;2022-11-04T07:46:03;3.33;;;1.05;;
21675;SDS011;10999;51.332;9.458;2022-11-04T07:48:32;5.68;;;1.30;;
21675;SDS011;10999;51.332;9.458;2022-11-04T07:50:59;4.53;;;1.20;;
21675;SDS011;10999;51.332;9.458;2022-11-04T07:53:28;4.57;;;1.10;;
21675;SDS011;10999;51.332;9.458;2022-11-04T07:55:55;5.53;;;1.35;;
21675;SDS011;10999;51.332;9.458;2022-11-04T07:58:23;4.75;;;1.20;;
21675;SDS011;10999;51.332;9.458;2022-11-04T08:00:56;5.32;;;1.45;;
21675;SDS011;10999;51.332;9.458;2022-11-04T08:03:26;4.45;;;1.52;;
21675;SDS011;10999;51.332;9.458;2022-11-04T08:05:57;4.47;;;1.65;;
21675;SDS011;10999;51.332;9.458;2022-11-04T08:08:26;3.33;;;1.20;;
21675;SDS011;10999;51.332;9.458;2022-11-04T08:10:53;4.63;;;1.30;;
21675;SDS011;10999;51.332;9.458;2022-11-04T08:13:22;4.28;;;1.50;;
21675;SDS011;10999;51.332;9.458;2022-11-04T08:15:52;6.78;;;1.40;;
21675;SDS011;10999;51.332;9.458;2022-11-04T08:18:18;5.82;;;1.30;;
21675;SDS011;10999;51.332;9.458;2022-11-04T08:20:48;4.22;;;1.23;;
21675;SDS011;10999;51.332;9.458;2022-11-04T08:23:16;4.65;;;1.58;;
21675;SDS011;10999;51.332;9.458;2022-11-04T08:25:43;4.50;;;1.25;;
21675;SDS011;10999;51.332;9.458;2022-11-04T08:28:11;5.80;;;1.27;;
21675;SDS011;10999;51.332;9.458;2022-11-04T08:33:27;4.38;;;1.30;;
21675;SDS011;10999;51.332;9.458;2022-11-04T08:35:58;3.97;;;1.17;;
21675;SDS011;10999;51.332;9.458;2022-11-04T08:38:26;3.28;;;1.30;;
21675;SDS011;10999;51.332;9.458;2022-11-04T08:40:57;4.40;;;1.55;;
21675;SDS011;10999;51.332;9.458;2022-11-04T08:43:25;4.47;;;1.33;;
21675;SDS011;10999;51.332;9.458;2022-11-04T08:45:52;2.92;;;1.30;;
21675;SDS011;10999;51.332;9.458;2022-11-04T08:48:20;3.03;;;1.20;;
21675;SDS011;10999;51.332;9.458;2022-11-04T08:50:48;3.33;;;1.30;;
21675;SDS011;10999;51.332;9.458;2022-11-04T08:53:19;4.07;;;1.38;;
21675;SDS011;10999;51.332;9.458;2022-11-04T08:55:46;4.45;;;1.58;;
21675;SDS011;10999;51.332;9.458;2022-11-04T08:58:14;4.18;;;1.40;;
21675;SDS011;10999;51.332;9.458;2022-11-04T09:00:41;4.60;;;1.25;;
21675;SDS011;10999;51.332;9.458;2022-11-04T09:03:08;4.28;;;1.15;;
21675;SDS011;10999;51.332;9.458;2022-11-04T09:05:36;5.68;;;1.45;;
21675;SDS011;10999;51.332;9.458;2022-11-04T09:08:13;4.18;;;1.10;;
21675;SDS011;10999;51.332;9.458;2022-11-04T09:10:42;3.80;;;1.30;;
21675;SDS011;10999;51.332;9.458;2022-11-04T09:13:10;1.95;;;0.90;;
21675;SDS011;10999;51.332;9.458;2022-11-04T09:15:38;2.88;;;0.95;;
21675;SDS011;10999;51.332;9.458;2022-11-04T09:18:04;2.35;;;1.08;;
21675;SDS011;10999;51.332;9.458;2022-11-04T09:20:31;4.15;;;1.40;;
21675;SDS011;10999;51.332;9.458;2022-11-04T09:22:59;4.03;;;1.15;;
21675;SDS011;10999;51.332;9.458;2022-11-04T09:25:25;2.65;;;1.42;;
21675;SDS011;10999;51.332;9.458;2022-11-04T09:27:52;4.72;;;1.30;;
21675;SDS011;10999;51.332;9.458;2022-11-04T09:30:19;5.70;;;1.27;;
21675;SDS011;10999;51.332;9.458;2022-11-04T09:32:46;4.53;;;1.10;;
21675;SDS011;10999;51.332;9.458;2022-11-04T09:35:18;3.67;;;1.02;;
21675;SDS011;10999;51.332;9.458;2022-11-04T09:37:44;2.70;;;0.82;;
21675;SDS011;10999;51.332;9.458;2022-11-04T09:40:14;3.67;;;1.10;;
21675;SDS011;10999;51.332;9.458;2022-11-04T09:48:13;5.90;;;1.02;;
21675;SDS011;10999;51.332;9.458;2022-11-04T09:51:00;3.25;;;1.13;;
21675;SDS011;10999;51.332;9.458;2022-11-04T09:53:49;4.50;;;0.90;;
21675;SDS011;10999;51.332;9.458;2022-11-04T09:56:36;2.60;;;0.80;;
21675;SDS011;10999;51.332;9.458;2022-11-04T09:59:08;6.50;;;1.15;;
21675;SDS011;10999;51.332;9.458;2022-11-04T10:01:58;2.63;;;1.00;;
21675;SDS011;10999;51.332;9.458;2022-11-04T10:04:36;1.60;;;0.60;;
21675;SDS011;10999;51.332;9.458;2022-11-04T10:12:50;4.15;;;0.95;;
21675;SDS011;10999;51.332;9.458;2022-11-04T10:15:51;3.08;;;0.90;;
21675;SDS011;10999;51.332;9.458;2022-11-04T10:21:20;4.90;;;1.10;;
21675;SDS011;10999;51.332;9.458;2022-11-04T10:26:49;3.13;;;0.90;;
21675;SDS011;10999;51.332;9.458;2022-11-04T10:29:27;3.42;;;0.90;;
21675;SDS011;10999;51.332;9.458;2022-11-04T10:32:17;3.42;;;1.17;;
21675;SDS011;10999;51.332;9.458;2022-11-04T10:34:53;4.97;;;1.05;;
21675;SDS011;10999;51.332;9.458;2022-11-04T10:37:25;3.10;;;0.95;;
21675;SDS011;10999;51.332;9.458;2022-11-04T10:42:57;4.15;;;0.70;;
21675;SDS011;10999;51.332;9.458;2022-11-04T10:45:28;4.15;;;0.77;;
21675;SDS011;10999;51.332;9.458;2022-11-04T10:48:08;1.83;;;0.70;;
21675;SDS011;10999;51.332;9.458;2022-11-04T10:50:47;3.25;;;0.68;;
21675;SDS011;10999;51.332;9.458;2022-11-04T10:53:22;2.17;;;0.63;;
21675;SDS011;10999;51.332;9.458;2022-11-04T10:56:00;2.92;;;0.70;;
21675;SDS011;10999;51.332;9.458;2022-11-04T10:58:35;2.45;;;0.77;;
21675;SDS011;10999;51.332;9.458;2022-11-04T11:01:26;2.65;;;0.50;;
21675;SDS011;10999;51.332;9.458;2022-11-04T11:03:56;3.05;;;0.80;;
21675;SDS011;10999;51.332;9.458;2022-11-04T11:06:27;4.78;;;0.90;;
21675;SDS011;10999;51.332;9.458;2022-11-04T11:08:58;2.60;;;0.70;;
21675;SDS011;10999;51.332;9.458;2022-11-04T11:11:39;6.63;;;0.88;;
21675;SDS011;10999;51.332;9.458;2022-11-04T11:14:17;6.55;;;0.90;;
21675;SDS011;10999;51.332;9.458;2022-11-04T11:16:53;3.88;;;0.85;;
21675;SDS011;10999;51.332;9.458;2022-11-04T11:19:21;2.75;;;0.70;;
21675;SDS011;10999;51.332;9.458;2022-11-04T11:21:56;3.85;;;0.63;;
21675;SDS011;10999;51.332;9.458;2022-11-04T11:24:23;4.43;;;0.77;;
21675;SDS011;10999;51.332;9.458;2022-11-04T11:26:52;4.88;;;0.77;;
21675;SDS011;10999;51.332;9.458;2022-11-04T11:29:31;4.10;;;0.80;;
21675;SDS011;10999;51.332;9.458;2022-11-04T11:34:56;3.58;;;0.60;;
21675;SDS011;10999;51.332;9.458;2022-11-04T11:37:29;8.00;;;0.93;;
21675;SDS011;10999;51.332;9.458;2022-11-04T11:39:57;3.53;;;0.70;;
21675;SDS011;10999;51.332;9.458;2022-11-04T11:42:24;2.17;;;0.50;;
21675;SDS011;10999;51.332;9.458;2022-11-04T11:44:52;3.67;;;0.43;;
21675;SDS011;10999;51.332;9.458;2022-11-04T11:50:04;4.65;;;1.10;;
21675;SDS011;10999;51.332;9.458;2022-11-04T11:52:32;2.25;;;0.43;;
21675;SDS011;10999;51.332;9.458;2022-11-04T11:55:02;3.53;;;0.70;;
21675;SDS011;10999;51.332;9.458;2022-11-04T11:57:39;2.85;;;0.82;;
21675;SDS011;10999;51.332;9.458;2022-11-04T12:00:36;4.75;;;0.80;;
21675;SDS011;10999;51.332;9.458;2022-11-04T12:12:07;2.40;;;0.63;;
21675;SDS011;10999;51.332;9.458;2022-11-04T12:20:54;4.82;;;0.50;;
21675;SDS011;10999;51.332;9.458;2022-11-04T12:28:58;4.30;;;0.70;;
21675;SDS011;10999;51.332;9.458;2022-11-04T12:51:49;4.40;;;0.82;;
21675;SDS011;10999;51.332;9.458;2022-11-04T12:57:47;1.98;;;0.60;;
21675;SDS011;10999;51.332;9.458;2022-11-04T13:00:10;4.38;;;1.10;;
21675;SDS011;10999;51.332;9.458;2022-11-04T13:02:41;3.00;;;0.47;;
21675;SDS011;10999;51.332;9.458;2022-11-04T13:05:37;3.92;;;0.70;;
21675;SDS011;10999;51.332;9.458;2022-11-04T13:10:45;4.43;;;0.75;;
21675;SDS011;10999;51.332;9.458;2022-11-04T13:14:11;3.03;;;0.50;;
21675;SDS011;10999;51.332;9.458;2022-11-04T13:16:48;2.25;;;0.68;;
21675;SDS011;10999;51.332;9.458;2022-11-04T13:19:23;3.72;;;0.93;;
21675;SDS011;10999;51.332;9.458;2022-11-04T13:21:57;2.25;;;0.60;;
21675;SDS011;10999;51.332;9.458;2022-11-04T13:24:32;2.55;;;0.70;;
21675;SDS011;10999;51.332;9.458;2022-11-04T13:27:05;4.35;;;0.65;;
21675;SDS011;10999;51.332;9.458;2022-11-04T13:29:50;2.13;;;0.55;;
21675;SDS011;10999;51.332;9.458;2022-11-04T13:32:30;4.00;;;0.80;;
21675;SDS011;10999;51.332;9.458;2022-11-04T13:35:08;3.35;;;0.60;;
21675;SDS011;10999;51.332;9.458;2022-11-04T13:37:39;5.25;;;0.90;;
21675;SDS011;10999;51.332;9.458;2022-11-04T13:40:23;4.28;;;0.70;;
21675;SDS011;10999;51.332;9.458;2022-11-04T13:46:49;1.75;;;0.57;;
21675;SDS011;10999;51.332;9.458;2022-11-04T13:48:59;3.38;;;0.77;;
21675;SDS011;10999;51.332;9.458;2022-11-04T13:51:38;3.28;;;0.93;;
21675;SDS011;10999;51.332;9.458;2022-11-04T13:54:21;3.08;;;0.60;;
21675;SDS011;10999;51.332;9.458;2022-11-04T13:57:02;2.47;;;0.50;;
21675;SDS011;10999;51.332;9.458;2022-11-04T13:59:30;3.35;;;0.82;;
21675;SDS011;10999;51.332;9.458;2022-11-04T14:04:37;2.95;;;0.50;;
21675;SDS011;10999;51.332;9.458;2022-11-04T14:07:06;2.22;;;0.68;;
21675;SDS011;10999;51.332;9.458;2022-11-04T14:14:36;2.75;;;1.00;;
21675;SDS011;10999;51.332;9.458;2022-11-04T14:17:55;4.47;;;0.90;;
21675;SDS011;10999;51.332;9.458;2022-11-04T14:33:20;4.45;;;0.60;;
21675;SDS011;10999;51.332;9.458;2022-11-04T14:36:13;4.53;;;0.65;;
21675;SDS011;10999;51.332;9.458;2022-11-04T14:38:51;2.08;;;0.60;;
21675;SDS011;10999;51.332;9.458;2022-11-04T14:49:59;3.35;;;0.98;;
21675;SDS011;10999;51.332;9.458;2022-11-04T14:57:38;3.65;;;0.80;;
21675;SDS011;10999;51.332;9.458;2022-11-04T15:03:00;4.50;;;0.85;;
21675;SDS011;10999;51.332;9.458;2022-11-04T15:05:45;6.28;;;1.00;;
21675;SDS011;10999;51.332;9.458;2022-11-04T15:11:04;5.97;;;1.10;;
21675;SDS011;10999;51.332;9.458;2022-11-04T15:18:43;2.40;;;0.93;;
21675;SDS011;10999;51.332;9.458;2022-11-04T15:21:10;5.75;;;1.33;;
21675;SDS011;10999;51.332;9.458;2022-11-04T15:23:39;4.60;;;1.30;;
21675;SDS011;10999;51.332;9.458;2022-11-04T15:26:22;3.90;;;1.10;;
21675;SDS011;10999;51.332;9.458;2022-11-04T15:28:55;5.85;;;1.13;;
21675;SDS011;10999;51.332;9.458;2022-11-04T15:34:26;5.60;;;1.17;;
21675;SDS011;10999;51.332;9.458;2022-11-04T15:36:58;7.38;;;1.60;;
21675;SDS011;10999;51.332;9.458;2022-11-04T15:39:30;6.15;;;1.60;;
21675;SDS011;10999;51.332;9.458;2022-11-04T15:42:12;5.10;;;1.60;;
21675;SDS011;10999;51.332;9.458;2022-11-04T15:45:25;7.32;;;1.65;;
21675;SDS011;10999;51.332;9.458;2022-11-04T15:48:27;7.70;;;2.08;;
21675;SDS011;10999;51.332;9.458;2022-11-04T15:53:47;6.68;;;1.83;;
21675;SDS011;10999;51.332;9.458;2022-11-04T15:56:15;3.38;;;1.15;;
21675;SDS011;10999;51.332;9.458;2022-11-04T15:58:45;6.45;;;2.15;;
21675;SDS011;10999;51.332;9.458;2022-11-04T16:01:13;3.72;;;1.40;;
21675;SDS011;10999;51.332;9.458;2022-11-04T16:03:48;5.03;;;1.60;;
21675;SDS011;10999;51.332;9.458;2022-11-04T16:06:34;5.43;;;1.45;;
21675;SDS011;10999;51.332;9.458;2022-11-04T16:09:15;6.82;;;2.40;;
21675;SDS011;10999;51.332;9.458;2022-11-04T16:12:24;4.57;;;2.35;;
21675;SDS011;10999;51.332;9.458;2022-11-04T16:14:47;8.13;;;2.60;;
21675;SDS011;10999;51.332;9.458;2022-11-04T16:17:15;7.20;;;2.30;;
21675;SDS011;10999;51.332;9.458;2022-11-04T16:19:44;6.15;;;2.47;;
21675;SDS011;10999;51.332;9.458;2022-11-04T16:22:17;8.70;;;2.58;;
21675;SDS011;10999;51.332;9.458;2022-11-04T16:24:55;9.68;;;2.67;;
21675;SDS011;10999;51.332;9.458;2022-11-04T16:27:23;8.00;;;2.30;;
21675;SDS011;10999;51.332;9.458;2022-11-04T16:29:51;8.63;;;2.63;;
21675;SDS011;10999;51.332;9.458;2022-11-04T16:32:25;8.82;;;3.00;;
21675;SDS011;10999;51.332;9.458;2022-11-04T16:34:58;8.48;;;3.13;;
21675;SDS011;10999;51.332;9.458;2022-11-04T16:37:28;6.82;;;2.28;;
21675;SDS011;10999;51.332;9.458;2022-11-04T16:39:56;6.82;;;1.90;;
21675;SDS011;10999;51.332;9.458;2022-11-04T16:42:23;8.05;;;2.00;;
21675;SDS011;10999;51.332;9.458;2022-11-04T16:44:50;5.45;;;2.28;;
21675;SDS011;10999;51.332;9.458;2022-11-04T16:47:23;6.10;;;2.35;;
21675;SDS011;10999;51.332;9.458;2022-11-04T16:49:51;5.70;;;2.33;;
21675;SDS011;10999;51.332;9.458;2022-11-04T16:52:20;5.63;;;2.30;;
21675;SDS011;10999;51.332;9.458;2022-11-04T16:54:50;7.85;;;2.55;;
21675;SDS011;10999;51.332;9.458;2022-11-04T16:57:17;12.70;;;3.25;;
21675;SDS011;10999;51.332;9.458;2022-11-04T16:59:44;6.47;;;2.53;;
21675;SDS011;10999;51.332;9.458;2022-11-04T17:05:06;6.75;;;2.42;;
21675;SDS011;10999;51.332;9.458;2022-11-04T17:07:36;7.35;;;2.88;;
21675;SDS011;10999;51.332;9.458;2022-11-04T17:10:20;9.07;;;2.78;;
21675;SDS011;10999;51.332;9.458;2022-11-04T17:12:48;9.20;;;2.78;;
21675;SDS011;10999;51.332;9.458;2022-11-04T17:15:15;7.35;;;3.00;;
21675;SDS011;10999;51.332;9.458;2022-11-04T17:17:42;9.88;;;3.00;;
21675;SDS011;10999;51.332;9.458;2022-11-04T17:20:10;8.27;;;2.90;;
21675;SDS011;10999;51.332;9.458;2022-11-04T17:22:42;10.60;;;2.65;;
21675;SDS011;10999;51.332;9.458;2022-11-04T17:25:14;8.23;;;2.72;;
21675;SDS011;10999;51.332;9.458;2022-11-04T17:27:46;7.32;;;2.63;;
21675;SDS011;10999;51.332;9.458;2022-11-04T17:30:13;5.90;;;2.70;;
21675;SDS011;10999;51.332;9.458;2022-11-04T17:32:42;8.02;;;2.58;;
21675;SDS011;10999;51.332;9.458;2022-11-04T17:35:10;10.27;;;2.53;;
21675;SDS011;10999;51.332;9.458;2022-11-04T17:37:37;7.72;;;2.20;;
21675;SDS011;10999;51.332;9.458;2022-11-04T17:40:04;9.10;;;2.55;;
21675;SDS011;10999;51.332;9.458;2022-11-04T17:42:32;8.45;;;2.72;;
21675;SDS011;10999;51.332;9.458;2022-11-04T17:45:17;8.55;;;2.60;;
21675;SDS011;10999;51.332;9.458;2022-11-04T17:47:44;7.80;;;2.35;;
21675;SDS011;10999;51.332;9.458;2022-11-04T17:50:11;7.65;;;2.97;;
21675;SDS011;10999;51.332;9.458;2022-11-04T17:52:38;8.05;;;2.50;;
21675;SDS011;10999;51.332;9.458;2022-11-04T17:55:07;9.15;;;3.17;;
21675;SDS011;10999;51.332;9.458;2022-11-04T17:57:41;14.70;;;5.53;;